sensor_id;sensor_type;location;lat;lon;timestamp;temperature;humidity
42365;DHT22;28498;54.400;18.566;2023-03-14T00:00:11;10.10;99.90
42365;DHT22;28498;54.400;18.566;2023-03-14T00:02:39;10.10;99.90
42365;DHT22;28498;54.400;18.566;2023-03-14T00:05:07;10.00;99.90
42365;DHT22;28498;54.400;18.566;2023-03-14T00:07:39;10.00;99.90
42365;DHT22;28498;54.400;18.566;2023-03-14T00:10:12;10.10;99.90
42365;DHT22;28498;54.400;18.566;2023-03-14T00:12:41;10.10;99.90
42365;DHT22;28498;54.400;18.566;2023-03-14T00:15:09;10.10;99.90
42365;DHT22;28498;54.400;18.566;2023-03-14T00:17:37;9.90;99.90
42365;DHT22;28498;54.400;18.566;2023-03-14T00:20:05;10.00;99.90
42365;DHT22;28498;54.400;18.566;2023-03-14T00:22:36;9.90;99.90
42365;DHT22;28498;54.400;18.566;2023-03-14T00:25:04;10.10;99.90
42365;DHT22;28498;54.400;18.566;2023-03-14T00:27:32;10.00;99.90
42365;DHT22;28498;54.400;18.566;2023-03-14T00:29:59;9.90;99.90
42365;DHT22;28498;54.400;18.566;2023-03-14T00:32:26;9.80;99.90
42365;DHT22;28498;54.400;18.566;2023-03-14T00:34:53;9.90;99.90
42365;DHT22;28498;54.400;18.566;2023-03-14T00:37:20;10.10;99.90
42365;DHT22;28498;54.400;18.566;2023-03-14T00:39:46;10.10;99.90
42365;DHT22;28498;54.400;18.566;2023-03-14T00:42:14;9.90;99.90
42365;DHT22;28498;54.400;18.566;2023-03-14T00:44:41;9.80;99.90
42365;DHT22;28498;54.400;18.566;2023-03-14T00:47:08;10.00;99.90
42365;DHT22;28498;54.400;18.566;2023-03-14T00:49:35;10.00;99.90
42365;DHT22;28498;54.400;18.566;2023-03-14T00:52:02;9.90;99.90
42365;DHT22;28498;54.400;18.566;2023-03-14T00:54:29;9.80;99.90
42365;DHT22;28498;54.400;18.566;2023-03-14T00:56:56;9.80;99.90
42365;DHT22;28498;54.400;18.566;2023-03-14T00:59:23;9.80;99.90
42365;DHT22;28498;54.400;18.566;2023-03-14T01:01:50;9.70;99.90
42365;DHT22;28498;54.400;18.566;2023-03-14T01:04:17;9.60;99.90
42365;DHT22;28498;54.400;18.566;2023-03-14T01:06:44;9.80;99.90
42365;DHT22;28498;54.400;18.566;2023-03-14T01:09:11;9.80;99.90
42365;DHT22;28498;54.400;18.566;2023-03-14T01:11:38;9.90;99.90
42365;DHT22;28498;54.400;18.566;2023-03-14T01:14:05;9.80;99.90
42365;DHT22;28498;54.400;18.566;2023-03-14T01:16:34;9.90;99.90
42365;DHT22;28498;54.400;18.566;2023-03-14T01:19:02;9.90;99.90
42365;DHT22;28498;54.400;18.566;2023-03-14T01:21:31;9.80;99.90
42365;DHT22;28498;54.400;18.566;2023-03-14T01:24:00;9.60;99.90
42365;DHT22;28498;54.400;18.566;2023-03-14T01:26:30;9.70;99.90
42365;DHT22;28498;54.400;18.566;2023-03-14T01:28:57;9.70;99.90
42365;DHT22;28498;54.400;18.566;2023-03-14T01:31:25;9.80;99.90
42365;DHT22;28498;54.400;18.566;2023-03-14T01:33:53;9.80;99.90
42365;DHT22;28498;54.400;18.566;2023-03-14T01:36:20;9.80;99.90
42365;DHT22;28498;54.400;18.566;2023-03-14T01:38:47;9.80;99.90
42365;DHT22;28498;54.400;18.566;2023-03-14T01:41:21;9.80;99.90
42365;DHT22;28498;54.400;18.566;2023-03-14T01:43:49;9.70;99.90
42365;DHT22;28498;54.400;18.566;2023-03-14T01:46:36;9.60;99.90
42365;DHT22;28498;54.400;18.566;2023-03-14T01:51:50;9.60;99.90
42365;DHT22;28498;54.400;18.566;2023-03-14T01:57:07;9.60;99.90
42365;DHT22;28498;54.400;18.566;2023-03-14T01:59:36;9.60;99.90
42365;DHT22;28498;54.400;18.566;2023-03-14T02:02:07;9.80;99.90
42365;DHT22;28498;54.400;18.566;2023-03-14T02:04:37;9.70;99.90
42365;DHT22;28498;54.400;18.566;2023-03-14T02:07:09;9.70;99.90
42365;DHT22;28498;54.400;18.566;2023-03-14T02:09:39;9.60;99.90
42365;DHT22;28498;54.400;18.566;2023-03-14T02:12:08;9.50;99.90
42365;DHT22;28498;54.400;18.566;2023-03-14T02:14:37;9.50;99.90
42365;DHT22;28498;54.400;18.566;2023-03-14T02:17:05;9.50;99.90
42365;DHT22;28498;54.400;18.566;2023-03-14T02:19:50;9.50;99.90
42365;DHT22;28498;54.400;18.566;2023-03-14T02:22:20;9.50;99.90
42365;DHT22;28498;54.400;18.566;2023-03-14T02:24:57;9.40;99.90
42365;DHT22;28498;54.400;18.566;2023-03-14T02:27:27;9.40;99.90
42365;DHT22;28498;54.400;18.566;2023-03-14T02:30:12;9.40;99.90
42365;DHT22;28498;54.400;18.566;2023-03-14T02:32:43;9.30;99.90
42365;DHT22;28498;54.400;18.566;2023-03-14T02:35:15;9.30;99.90
42365;DHT22;28498;54.400;18.566;2023-03-14T02:37:57;9.20;99.90
42365;DHT22;28498;54.400;18.566;2023-03-14T02:40:27;9.10;99.90
42365;DHT22;28498;54.400;18.566;2023-03-14T02:42:54;9.10;99.90
42365;DHT22;28498;54.400;18.566;2023-03-14T02:47:58;9.10;99.90
42365;DHT22;28498;54.400;18.566;2023-03-14T02:50:29;9.00;99.90
42365;DHT22;28498;54.400;18.566;2023-03-14T02:52:57;9.00;99.90
42365;DHT22;28498;54.400;18.566;2023-03-14T02:55:24;9.20;99.90
42365;DHT22;28498;54.400;18.566;2023-03-14T02:57:53;9.10;99.90
42365;DHT22;28498;54.400;18.566;2023-03-14T03:00:20;9.10;99.90
42365;DHT22;28498;54.400;18.566;2023-03-14T03:02:47;9.10;99.90
42365;DHT22;28498;54.400;18.566;2023-03-14T03:05:14;9.20;99.90
42365;DHT22;28498;54.400;18.566;2023-03-14T03:07:41;9.10;99.90
42365;DHT22;28498;54.400;18.566;2023-03-14T03:10:09;9.00;99.90
42365;DHT22;28498;54.400;18.566;2023-03-14T03:12:36;9.00;99.90
42365;DHT22;28498;54.400;18.566;2023-03-14T03:15:03;9.00;99.90
42365;DHT22;28498;54.400;18.566;2023-03-14T03:17:30;9.10;99.90
42365;DHT22;28498;54.400;18.566;2023-03-14T03:19:57;9.00;99.90
42365;DHT22;28498;54.400;18.566;2023-03-14T03:22:24;9.00;99.90
42365;DHT22;28498;54.400;18.566;2023-03-14T03:24:51;9.00;99.90
42365;DHT22;28498;54.400;18.566;2023-03-14T03:27:18;9.00;99.90
42365;DHT22;28498;54.400;18.566;2023-03-14T03:29:45;9.20;99.90
42365;DHT22;28498;54.400;18.566;2023-03-14T03:32:12;9.20;99.90
42365;DHT22;28498;54.400;18.566;2023-03-14T03:34:39;9.20;99.90
42365;DHT22;28498;54.400;18.566;2023-03-14T03:37:06;9.20;99.90
42365;DHT22;28498;54.400;18.566;2023-03-14T03:39:33;9.30;99.90
42365;DHT22;28498;54.400;18.566;2023-03-14T03:42:00;9.30;99.90
42365;DHT22;28498;54.400;18.566;2023-03-14T03:44:27;9.20;99.90
42365;DHT22;28498;54.400;18.566;2023-03-14T03:46:53;9.20;99.90
42365;DHT22;28498;54.400;18.566;2023-03-14T03:49:21;9.10;99.90
42365;DHT22;28498;54.400;18.566;2023-03-14T03:51:47;9.10;99.90
42365;DHT22;28498;54.400;18.566;2023-03-14T03:54:14;9.10;99.90
42365;DHT22;28498;54.400;18.566;2023-03-14T03:56:41;9.10;99.90
42365;DHT22;28498;54.400;18.566;2023-03-14T03:59:08;9.20;99.90
42365;DHT22;28498;54.400;18.566;2023-03-14T04:01:35;9.10;99.90
42365;DHT22;28498;54.400;18.566;2023-03-14T04:04:02;9.20;99.90
42365;DHT22;28498;54.400;18.566;2023-03-14T04:06:30;9.30;99.90
42365;DHT22;28498;54.400;18.566;2023-03-14T04:08:57;9.10;99.90
42365;DHT22;28498;54.400;18.566;2023-03-14T04:11:24;9.10;99.90
42365;DHT22;28498;54.400;18.566;2023-03-14T04:13:51;9.20;99.90
42365;DHT22;28498;54.400;18.566;2023-03-14T04:16:21;9.10;99.90
42365;DHT22;28498;54.400;18.566;2023-03-14T04:18:49;9.20;99.90
42365;DHT22;28498;54.400;18.566;2023-03-14T04:21:16;9.20;99.90
42365;DHT22;28498;54.400;18.566;2023-03-14T04:23:43;9.20;99.90
42365;DHT22;28498;54.400;18.566;2023-03-14T04:26:10;9.20;99.90
42365;DHT22;28498;54.400;18.566;2023-03-14T04:28:37;9.30;99.90
42365;DHT22;28498;54.400;18.566;2023-03-14T04:31:10;9.30;99.90
42365;DHT22;28498;54.400;18.566;2023-03-14T04:33:37;9.50;99.90
42365;DHT22;28498;54.400;18.566;2023-03-14T04:36:07;9.50;99.90
42365;DHT22;28498;54.400;18.566;2023-03-14T04:38:34;9.40;99.90
42365;DHT22;28498;54.400;18.566;2023-03-14T04:41:01;9.50;99.90
42365;DHT22;28498;54.400;18.566;2023-03-14T04:43:28;9.50;99.90
42365;DHT22;28498;54.400;18.566;2023-03-14T04:45:57;9.60;99.90
42365;DHT22;28498;54.400;18.566;2023-03-14T04:48:26;9.70;99.90
42365;DHT22;28498;54.400;18.566;2023-03-14T04:50:53;9.70;99.90
42365;DHT22;28498;54.400;18.566;2023-03-14T04:53:20;9.90;99.90
42365;DHT22;28498;54.400;18.566;2023-03-14T04:55:52;9.80;99.90
42365;DHT22;28498;54.400;18.566;2023-03-14T04:58:20;9.80;99.90
42365;DHT22;28498;54.400;18.566;2023-03-14T05:00:47;9.60;99.90
42365;DHT22;28498;54.400;18.566;2023-03-14T05:03:16;9.50;99.90
42365;DHT22;28498;54.400;18.566;2023-03-14T05:05:43;9.50;99.90
42365;DHT22;28498;54.400;18.566;2023-03-14T05:08:11;9.40;99.90
42365;DHT22;28498;54.400;18.566;2023-03-14T05:10:38;9.40;99.90
42365;DHT22;28498;54.400;18.566;2023-03-14T05:13:05;9.40;99.90
42365;DHT22;28498;54.400;18.566;2023-03-14T05:15:32;9.40;99.90
42365;DHT22;28498;54.400;18.566;2023-03-14T05:18:00;9.40;99.90
42365;DHT22;28498;54.400;18.566;2023-03-14T05:20:27;9.50;99.90
42365;DHT22;28498;54.400;18.566;2023-03-14T05:22:54;9.40;99.90
42365;DHT22;28498;54.400;18.566;2023-03-14T05:25:21;9.40;99.90
42365;DHT22;28498;54.400;18.566;2023-03-14T05:27:47;9.40;99.90
42365;DHT22;28498;54.400;18.566;2023-03-14T05:30:14;9.40;99.90
42365;DHT22;28498;54.400;18.566;2023-03-14T05:32:41;9.50;99.90
42365;DHT22;28498;54.400;18.566;2023-03-14T05:35:08;9.50;99.90
42365;DHT22;28498;54.400;18.566;2023-03-14T05:37:35;9.40;99.90
42365;DHT22;28498;54.400;18.566;2023-03-14T05:40:03;9.40;99.90
42365;DHT22;28498;54.400;18.566;2023-03-14T05:42:33;9.40;99.90
42365;DHT22;28498;54.400;18.566;2023-03-14T05:45:00;9.40;99.90
42365;DHT22;28498;54.400;18.566;2023-03-14T05:47:27;9.50;99.90
42365;DHT22;28498;54.400;18.566;2023-03-14T05:49:54;9.60;99.90
42365;DHT22;28498;54.400;18.566;2023-03-14T05:52:21;9.50;99.90
42365;DHT22;28498;54.400;18.566;2023-03-14T05:54:48;9.50;99.90
42365;DHT22;28498;54.400;18.566;2023-03-14T05:57:15;9.50;99.90
42365;DHT22;28498;54.400;18.566;2023-03-14T05:59:42;9.60;99.90
42365;DHT22;28498;54.400;18.566;2023-03-14T06:02:09;9.60;99.90
42365;DHT22;28498;54.400;18.566;2023-03-14T06:04:36;9.70;99.90
42365;DHT22;28498;54.400;18.566;2023-03-14T06:07:03;9.80;99.90
42365;DHT22;28498;54.400;18.566;2023-03-14T06:09:30;9.80;99.90
42365;DHT22;28498;54.400;18.566;2023-03-14T06:11:57;9.90;99.90
42365;DHT22;28498;54.400;18.566;2023-03-14T06:14:24;9.90;99.90
42365;DHT22;28498;54.400;18.566;2023-03-14T06:16:51;10.10;99.90
42365;DHT22;28498;54.400;18.566;2023-03-14T06:19:19;10.10;99.90
42365;DHT22;28498;54.400;18.566;2023-03-14T06:21:46;10.20;99.90
42365;DHT22;28498;54.400;18.566;2023-03-14T06:24:13;10.20;99.90
42365;DHT22;28498;54.400;18.566;2023-03-14T06:26:40;10.20;99.90
42365;DHT22;28498;54.400;18.566;2023-03-14T06:29:07;10.30;99.90
42365;DHT22;28498;54.400;18.566;2023-03-14T06:31:34;10.40;99.90
42365;DHT22;28498;54.400;18.566;2023-03-14T06:34:02;10.40;99.90
42365;DHT22;28498;54.400;18.566;2023-03-14T06:36:29;10.40;99.90
42365;DHT22;28498;54.400;18.566;2023-03-14T06:38:55;10.40;99.90
42365;DHT22;28498;54.400;18.566;2023-03-14T06:41:22;10.40;99.90
42365;DHT22;28498;54.400;18.566;2023-03-14T06:43:52;10.40;99.90
42365;DHT22;28498;54.400;18.566;2023-03-14T06:46:22;10.50;99.90
42365;DHT22;28498;54.400;18.566;2023-03-14T06:48:49;10.50;99.90
42365;DHT22;28498;54.400;18.566;2023-03-14T06:51:16;10.60;99.90
42365;DHT22;28498;54.400;18.566;2023-03-14T06:53:43;10.60;99.90
42365;DHT22;28498;54.400;18.566;2023-03-14T06:56:10;10.70;99.90
42365;DHT22;28498;54.400;18.566;2023-03-14T06:58:37;10.80;99.90
42365;DHT22;28498;54.400;18.566;2023-03-14T07:01:05;10.80;99.90
42365;DHT22;28498;54.400;18.566;2023-03-14T07:03:32;10.90;99.90
42365;DHT22;28498;54.400;18.566;2023-03-14T07:05:59;11.00;99.90
42365;DHT22;28498;54.400;18.566;2023-03-14T07:08:26;11.10;99.90
42365;DHT22;28498;54.400;18.566;2023-03-14T07:10:56;11.20;99.90
42365;DHT22;28498;54.400;18.566;2023-03-14T07:13:23;11.30;99.90
42365;DHT22;28498;54.400;18.566;2023-03-14T07:15:50;11.40;99.90
42365;DHT22;28498;54.400;18.566;2023-03-14T07:18:17;11.50;99.90
42365;DHT22;28498;54.400;18.566;2023-03-14T07:20:45;11.50;99.90
42365;DHT22;28498;54.400;18.566;2023-03-14T07:23:12;11.50;99.90
42365;DHT22;28498;54.400;18.566;2023-03-14T07:25:39;11.60;99.90
42365;DHT22;28498;54.400;18.566;2023-03-14T07:28:06;11.70;99.90
42365;DHT22;28498;54.400;18.566;2023-03-14T07:30:33;11.90;99.90
42365;DHT22;28498;54.400;18.566;2023-03-14T07:33:00;12.10;99.90
42365;DHT22;28498;54.400;18.566;2023-03-14T07:35:27;12.20;99.90
42365;DHT22;28498;54.400;18.566;2023-03-14T07:37:54;12.20;99.90
42365;DHT22;28498;54.400;18.566;2023-03-14T07:40:21;12.30;99.90
42365;DHT22;28498;54.400;18.566;2023-03-14T07:42:48;12.40;99.90
42365;DHT22;28498;54.400;18.566;2023-03-14T07:45:16;12.50;99.90
42365;DHT22;28498;54.400;18.566;2023-03-14T07:47:43;12.50;99.90
42365;DHT22;28498;54.400;18.566;2023-03-14T07:50:10;12.60;99.90
42365;DHT22;28498;54.400;18.566;2023-03-14T07:52:37;12.70;99.90
42365;DHT22;28498;54.400;18.566;2023-03-14T07:55:05;12.90;99.90
42365;DHT22;28498;54.400;18.566;2023-03-14T07:57:32;12.90;99.90
42365;DHT22;28498;54.400;18.566;2023-03-14T07:59:59;12.90;99.90
42365;DHT22;28498;54.400;18.566;2023-03-14T08:02:26;12.80;99.90
42365;DHT22;28498;54.400;18.566;2023-03-14T08:04:53;12.80;99.90
42365;DHT22;28498;54.400;18.566;2023-03-14T08:07:20;12.80;99.90
42365;DHT22;28498;54.400;18.566;2023-03-14T08:09:47;12.80;99.90
42365;DHT22;28498;54.400;18.566;2023-03-14T08:12:14;12.80;99.90
42365;DHT22;28498;54.400;18.566;2023-03-14T08:14:43;12.80;99.90
42365;DHT22;28498;54.400;18.566;2023-03-14T08:17:10;12.80;99.90
42365;DHT22;28498;54.400;18.566;2023-03-14T08:19:37;12.80;99.90
42365;DHT22;28498;54.400;18.566;2023-03-14T08:22:04;12.80;99.90
42365;DHT22;28498;54.400;18.566;2023-03-14T08:24:31;12.70;99.90
42365;DHT22;28498;54.400;18.566;2023-03-14T08:26:58;12.70;99.90
42365;DHT22;28498;54.400;18.566;2023-03-14T08:29:25;12.60;99.90
42365;DHT22;28498;54.400;18.566;2023-03-14T08:31:53;12.70;99.90
42365;DHT22;28498;54.400;18.566;2023-03-14T08:34:21;12.70;99.90
42365;DHT22;28498;54.400;18.566;2023-03-14T08:36:48;12.80;99.90
42365;DHT22;28498;54.400;18.566;2023-03-14T08:39:15;12.70;99.90
42365;DHT22;28498;54.400;18.566;2023-03-14T08:41:42;12.80;99.90
42365;DHT22;28498;54.400;18.566;2023-03-14T08:44:11;12.70;99.90
42365;DHT22;28498;54.400;18.566;2023-03-14T08:46:38;12.70;99.90
42365;DHT22;28498;54.400;18.566;2023-03-14T08:49:05;12.60;99.90
42365;DHT22;28498;54.400;18.566;2023-03-14T08:51:32;12.50;99.90
42365;DHT22;28498;54.400;18.566;2023-03-14T08:53:59;12.50;99.90
42365;DHT22;28498;54.400;18.566;2023-03-14T08:56:26;12.60;99.90
42365;DHT22;28498;54.400;18.566;2023-03-14T08:58:53;12.70;99.90
42365;DHT22;28498;54.400;18.566;2023-03-14T09:01:20;12.70;99.90
42365;DHT22;28498;54.400;18.566;2023-03-14T09:03:51;12.70;99.90
42365;DHT22;28498;54.400;18.566;2023-03-14T09:06:18;12.80;99.90
42365;DHT22;28498;54.400;18.566;2023-03-14T09:08:45;13.00;99.90
42365;DHT22;28498;54.400;18.566;2023-03-14T09:11:13;13.10;99.90
42365;DHT22;28498;54.400;18.566;2023-03-14T09:13:40;13.30;99.90
42365;DHT22;28498;54.400;18.566;2023-03-14T09:16:08;13.30;99.90
42365;DHT22;28498;54.400;18.566;2023-03-14T09:18:35;13.40;99.90
42365;DHT22;28498;54.400;18.566;2023-03-14T09:21:02;13.30;99.90
42365;DHT22;28498;54.400;18.566;2023-03-14T09:23:30;13.40;99.90
42365;DHT22;28498;54.400;18.566;2023-03-14T09:25:58;13.30;99.90
42365;DHT22;28498;54.400;18.566;2023-03-14T09:28:26;13.20;99.90
42365;DHT22;28498;54.400;18.566;2023-03-14T09:30:53;13.20;99.90
42365;DHT22;28498;54.400;18.566;2023-03-14T09:33:21;13.30;99.90
42365;DHT22;28498;54.400;18.566;2023-03-14T09:35:48;13.20;99.90
42365;DHT22;28498;54.400;18.566;2023-03-14T09:38:15;13.30;99.90
42365;DHT22;28498;54.400;18.566;2023-03-14T09:40:43;13.30;99.90
42365;DHT22;28498;54.400;18.566;2023-03-14T09:43:11;13.40;99.90
42365;DHT22;28498;54.400;18.566;2023-03-14T09:45:41;13.60;99.90
42365;DHT22;28498;54.400;18.566;2023-03-14T09:48:21;13.90;99.90
42365;DHT22;28498;54.400;18.566;2023-03-14T09:50:51;14.00;99.90
42365;DHT22;28498;54.400;18.566;2023-03-14T09:53:23;14.10;99.90
42365;DHT22;28498;54.400;18.566;2023-03-14T09:55:51;14.00;99.90
42365;DHT22;28498;54.400;18.566;2023-03-14T09:58:23;14.10;99.90
42365;DHT22;28498;54.400;18.566;2023-03-14T10:00:54;14.20;99.90
42365;DHT22;28498;54.400;18.566;2023-03-14T10:03:35;14.20;99.90
42365;DHT22;28498;54.400;18.566;2023-03-14T10:06:09;13.90;99.90
42365;DHT22;28498;54.400;18.566;2023-03-14T10:08:40;14.00;99.90
42365;DHT22;28498;54.400;18.566;2023-03-14T10:11:17;14.10;99.90
42365;DHT22;28498;54.400;18.566;2023-03-14T10:14:10;14.00;99.90
42365;DHT22;28498;54.400;18.566;2023-03-14T10:16:45;13.70;99.90
42365;DHT22;28498;54.400;18.566;2023-03-14T10:19:16;13.40;99.90
42365;DHT22;28498;54.400;18.566;2023-03-14T10:21:50;13.50;99.90
42365;DHT22;28498;54.400;18.566;2023-03-14T10:24:26;13.50;99.90
42365;DHT22;28498;54.400;18.566;2023-03-14T10:26:58;13.40;99.90
42365;DHT22;28498;54.400;18.566;2023-03-14T10:29:25;13.30;99.90
42365;DHT22;28498;54.400;18.566;2023-03-14T10:34:33;13.00;99.90
42365;DHT22;28498;54.400;18.566;2023-03-14T10:37:23;13.20;99.90
42365;DHT22;28498;54.400;18.566;2023-03-14T10:39:53;13.30;99.90
42365;DHT22;28498;54.400;18.566;2023-03-14T10:42:29;13.40;99.90
42365;DHT22;28498;54.400;18.566;2023-03-14T10:45:00;13.60;99.90
42365;DHT22;28498;54.400;18.566;2023-03-14T10:47:28;14.00;99.90
42365;DHT22;28498;54.400;18.566;2023-03-14T10:49:56;14.10;99.90
42365;DHT22;28498;54.400;18.566;2023-03-14T10:52:27;13.90;99.90
42365;DHT22;28498;54.400;18.566;2023-03-14T10:55:14;13.70;99.90
42365;DHT22;28498;54.400;18.566;2023-03-14T10:57:42;13.70;99.90
42365;DHT22;28498;54.400;18.566;2023-03-14T11:00:18;13.60;99.90
42365;DHT22;28498;54.400;18.566;2023-03-14T11:08:13;13.10;99.90
42365;DHT22;28498;54.400;18.566;2023-03-14T11:10:45;13.10;99.90
42365;DHT22;28498;54.400;18.566;2023-03-14T11:13:59;13.10;99.90
42365;DHT22;28498;54.400;18.566;2023-03-14T11:21:34;13.40;99.90
42365;DHT22;28498;54.400;18.566;2023-03-14T11:34:53;13.80;99.90
42365;DHT22;28498;54.400;18.566;2023-03-14T11:37:34;13.50;99.90
42365;DHT22;28498;54.400;18.566;2023-03-14T11:42:43;13.50;99.90
42365;DHT22;28498;54.400;18.566;2023-03-14T11:45:18;13.70;99.90
42365;DHT22;28498;54.400;18.566;2023-03-14T11:48:05;13.90;99.90
42365;DHT22;28498;54.400;18.566;2023-03-14T11:50:35;14.00;99.90
42365;DHT22;28498;54.400;18.566;2023-03-14T11:53:22;14.10;99.90
42365;DHT22;28498;54.400;18.566;2023-03-14T11:55:49;14.20;99.90
42365;DHT22;28498;54.400;18.566;2023-03-14T11:58:23;14.50;99.90
42365;DHT22;28498;54.400;18.566;2023-03-14T12:00:53;14.80;99.90
42365;DHT22;28498;54.400;18.566;2023-03-14T12:03:35;14.70;99.90
42365;DHT22;28498;54.400;18.566;2023-03-14T12:06:24;14.70;99.90
42365;DHT22;28498;54.400;18.566;2023-03-14T12:09:00;14.80;99.90
42365;DHT22;28498;54.400;18.566;2023-03-14T12:11:45;14.70;99.90
42365;DHT22;28498;54.400;18.566;2023-03-14T12:14:34;14.60;99.90
42365;DHT22;28498;54.400;18.566;2023-03-14T12:17:13;14.70;99.90
42365;DHT22;28498;54.400;18.566;2023-03-14T12:19:45;14.70;99.90
42365;DHT22;28498;54.400;18.566;2023-03-14T12:22:30;14.60;99.90
42365;DHT22;28498;54.400;18.566;2023-03-14T12:25:13;14.60;99.90
42365;DHT22;28498;54.400;18.566;2023-03-14T12:30:36;14.30;99.90
42365;DHT22;28498;54.400;18.566;2023-03-14T12:38:21;14.40;99.90
42365;DHT22;28498;54.400;18.566;2023-03-14T12:43:44;14.50;99.90
42365;DHT22;28498;54.400;18.566;2023-03-14T12:48:56;14.60;99.90
42365;DHT22;28498;54.400;18.566;2023-03-14T12:51:39;14.60;99.90
42365;DHT22;28498;54.400;18.566;2023-03-14T12:59:55;14.60;99.90
42365;DHT22;28498;54.400;18.566;2023-03-14T13:02:26;14.40;99.90
42365;DHT22;28498;54.400;18.566;2023-03-14T13:13:01;14.10;99.90
42365;DHT22;28498;54.400;18.566;2023-03-14T13:15:33;14.10;99.90
42365;DHT22;28498;54.400;18.566;2023-03-14T13:21:03;14.40;99.90
42365;DHT22;28498;54.400;18.566;2023-03-14T13:23:33;14.70;99.90
42365;DHT22;28498;54.400;18.566;2023-03-14T13:26:01;14.70;99.90
42365;DHT22;28498;54.400;18.566;2023-03-14T13:28:30;14.80;99.90
42365;DHT22;28498;54.400;18.566;2023-03-14T13:31:00;14.80;99.90
42365;DHT22;28498;54.400;18.566;2023-03-14T13:33:28;14.70;99.90
42365;DHT22;28498;54.400;18.566;2023-03-14T13:36:01;14.60;99.90
42365;DHT22;28498;54.400;18.566;2023-03-14T13:38:34;14.50;99.90
42365;DHT22;28498;54.400;18.566;2023-03-14T13:41:07;14.50;99.90
42365;DHT22;28498;54.400;18.566;2023-03-14T13:43:43;14.50;99.90
42365;DHT22;28498;54.400;18.566;2023-03-14T13:46:15;14.50;99.90
42365;DHT22;28498;54.400;18.566;2023-03-14T13:48:45;14.60;99.90
42365;DHT22;28498;54.400;18.566;2023-03-14T13:51:16;14.40;99.90
42365;DHT22;28498;54.400;18.566;2023-03-14T13:53:45;14.40;99.90
42365;DHT22;28498;54.400;18.566;2023-03-14T13:56:13;14.40;99.90
42365;DHT22;28498;54.400;18.566;2023-03-14T13:58:41;14.70;99.90
42365;DHT22;28498;54.400;18.566;2023-03-14T14:01:19;14.90;99.90
42365;DHT22;28498;54.400;18.566;2023-03-14T14:03:49;14.80;99.90
42365;DHT22;28498;54.400;18.566;2023-03-14T14:06:33;14.60;99.90
42365;DHT22;28498;54.400;18.566;2023-03-14T14:09:49;14.40;99.90
42365;DHT22;28498;54.400;18.566;2023-03-14T14:11:57;14.30;99.90
42365;DHT22;28498;54.400;18.566;2023-03-14T14:17:16;14.30;99.90
42365;DHT22;28498;54.400;18.566;2023-03-14T14:19:45;14.40;99.90
42365;DHT22;28498;54.400;18.566;2023-03-14T14:22:13;14.50;99.90
42365;DHT22;28498;54.400;18.566;2023-03-14T14:24:40;14.60;99.90
42365;DHT22;28498;54.400;18.566;2023-03-14T14:27:17;14.60;99.90
42365;DHT22;28498;54.400;18.566;2023-03-14T14:29:57;14.40;99.90
42365;DHT22;28498;54.400;18.566;2023-03-14T14:32:24;14.30;99.90
42365;DHT22;28498;54.400;18.566;2023-03-14T14:37:33;14.30;99.90
42365;DHT22;28498;54.400;18.566;2023-03-14T14:40:17;14.10;99.90
42365;DHT22;28498;54.400;18.566;2023-03-14T14:42:45;14.10;99.90
42365;DHT22;28498;54.400;18.566;2023-03-14T14:45:18;13.90;99.90
42365;DHT22;28498;54.400;18.566;2023-03-14T14:47:57;13.80;99.90
42365;DHT22;28498;54.400;18.566;2023-03-14T14:53:03;13.70;99.90
42365;DHT22;28498;54.400;18.566;2023-03-14T14:55:38;13.60;99.90
42365;DHT22;28498;54.400;18.566;2023-03-14T14:58:23;13.60;99.90
42365;DHT22;28498;54.400;18.566;2023-03-14T15:01:22;13.60;99.90
42365;DHT22;28498;54.400;18.566;2023-03-14T15:03:51;13.50;99.90
42365;DHT22;28498;54.400;18.566;2023-03-14T15:06:19;13.40;99.90
42365;DHT22;28498;54.400;18.566;2023-03-14T15:08:48;13.30;99.90
42365;DHT22;28498;54.400;18.566;2023-03-14T15:11:20;13.30;99.90
42365;DHT22;28498;54.400;18.566;2023-03-14T15:13:50;13.30;99.90
42365;DHT22;28498;54.400;18.566;2023-03-14T15:16:19;13.20;99.90
42365;DHT22;28498;54.400;18.566;2023-03-14T15:18:54;13.10;99.90
42365;DHT22;28498;54.400;18.566;2023-03-14T15:21:25;13.10;99.90
42365;DHT22;28498;54.400;18.566;2023-03-14T15:23:53;13.00;99.90
42365;DHT22;28498;54.400;18.566;2023-03-14T15:26:23;13.00;99.90
42365;DHT22;28498;54.400;18.566;2023-03-14T15:28:50;13.00;99.90
42365;DHT22;28498;54.400;18.566;2023-03-14T15:31:19;12.90;99.90
42365;DHT22;28498;54.400;18.566;2023-03-14T15:33:48;12.90;99.90
42365;DHT22;28498;54.400;18.566;2023-03-14T15:36:26;12.90;99.90
42365;DHT22;28498;54.400;18.566;2023-03-14T15:38:55;12.90;99.90
42365;DHT22;28498;54.400;18.566;2023-03-14T15:41:22;12.90;99.90
42365;DHT22;28498;54.400;18.566;2023-03-14T15:43:50;12.80;99.90
42365;DHT22;28498;54.400;18.566;2023-03-14T15:46:17;12.80;99.90
42365;DHT22;28498;54.400;18.566;2023-03-14T15:48:46;12.80;99.90
42365;DHT22;28498;54.400;18.566;2023-03-14T15:51:13;12.70;99.90
42365;DHT22;28498;54.400;18.566;2023-03-14T15:53:40;12.60;99.90
42365;DHT22;28498;54.400;18.566;2023-03-14T15:56:14;12.60;99.90
42365;DHT22;28498;54.400;18.566;2023-03-14T15:58:42;12.50;99.90
42365;DHT22;28498;54.400;18.566;2023-03-14T16:01:14;12.40;99.90
42365;DHT22;28498;54.400;18.566;2023-03-14T16:03:43;12.10;99.90
42365;DHT22;28498;54.400;18.566;2023-03-14T16:06:12;11.90;99.90
42365;DHT22;28498;54.400;18.566;2023-03-14T16:08:40;11.20;99.90
42365;DHT22;28498;54.400;18.566;2023-03-14T16:11:08;10.80;99.90
42365;DHT22;28498;54.400;18.566;2023-03-14T16:13:35;10.50;99.90
42365;DHT22;28498;54.400;18.566;2023-03-14T16:16:04;10.40;99.90
42365;DHT22;28498;54.400;18.566;2023-03-14T16:18:34;10.30;99.90
42365;DHT22;28498;54.400;18.566;2023-03-14T16:21:03;10.20;99.90
42365;DHT22;28498;54.400;18.566;2023-03-14T16:23:33;10.10;99.90
42365;DHT22;28498;54.400;18.566;2023-03-14T16:26:10;9.90;99.90
42365;DHT22;28498;54.400;18.566;2023-03-14T16:28:38;9.70;99.90
42365;DHT22;28498;54.400;18.566;2023-03-14T16:31:11;9.50;99.90
42365;DHT22;28498;54.400;18.566;2023-03-14T16:33:39;9.50;99.90
42365;DHT22;28498;54.400;18.566;2023-03-14T16:36:08;9.40;99.90
42365;DHT22;28498;54.400;18.566;2023-03-14T16:38:38;9.40;99.90
42365;DHT22;28498;54.400;18.566;2023-03-14T16:41:11;9.30;99.90
42365;DHT22;28498;54.400;18.566;2023-03-14T16:47:26;9.20;99.90
42365;DHT22;28498;54.400;18.566;2023-03-14T16:49:55;9.10;99.90
42365;DHT22;28498;54.400;18.566;2023-03-14T16:52:24;9.00;99.90
42365;DHT22;28498;54.400;18.566;2023-03-14T16:54:51;9.00;99.90